Time;durP1;ratioP1;P1;durP2;ratioP2;P2;SDS_P1;SDS_P2;PMS_P1;PMS_P2;Temp;Humidity;BMP_temperature;BMP_pressure;BME280_temperature;BME280_humidity;BME280_pressure;Samples;Min_cycle;Max_cycle;Signal;HPM_P1;HPM_P2
2022/03/19 00:02:21;;;;;;;30.90;15.02;;;6.30;99.90;;;;;;5053547;28;20379;-86
2022/03/19 00:04:47;;;;;;;30.05;15.35;;;6.20;99.90;;;;;;5052388;28;20447;-87
2022/03/19 00:07:13;;;;;;;30.85;15.13;;;6.20;99.90;;;;;;5052356;28;20407;-86
2022/03/19 00:09:40;;;;;;;25.67;14.88;;;6.20;99.90;;;;;;5053443;28;20376;-86
2022/03/19 00:12:07;;;;;;;26.07;16.07;;;5.90;99.90;;;;;;5055212;28;20817;-87
2022/03/19 00:14:33;;;;;;;26.00;15.05;;;5.90;99.90;;;;;;5051648;28;20390;-87
2022/03/19 00:16:59;;;;;;;27.08;15.25;;;5.80;99.90;;;;;;5050756;28;20813;-86
2022/03/19 00:19:25;;;;;;;28.75;14.93;;;5.80;99.90;;;;;;5060234;28;20390;-86
2022/03/19 00:21:51;;;;;;;30.50;15.95;;;5.70;99.90;;;;;;5056411;28;20754;-86
2022/03/19 00:24:18;;;;;;;32.45;16.95;;;5.60;99.90;;;;;;5057115;28;20434;-86
2022/03/19 00:26:43;;;;;;;28.58;16.40;;;5.60;99.90;;;;;;5054329;28;20439;-86
2022/03/19 00:29:09;;;;;;;31.43;18.03;;;5.50;99.90;;;;;;5055067;28;20400;-86
2022/03/19 00:31:35;;;;;;;27.90;16.95;;;5.50;99.90;;;;;;5053257;28;20391;-85
2022/03/19 00:34:01;;;;;;;30.15;17.05;;;5.40;99.90;;;;;;5055597;28;20384;-86
2022/03/19 00:36:27;;;;;;;33.67;18.88;;;5.30;99.90;;;;;;5057051;28;20376;-86
2022/03/19 00:38:54;;;;;;;33.65;19.52;;;5.30;99.90;;;;;;5048196;28;20400;-86
2022/03/19 00:41:21;;;;;;;36.83;21.13;;;5.10;99.90;;;;;;5057275;28;20385;-86
2022/03/19 00:43:47;;;;;;;35.53;20.50;;;5.20;99.90;;;;;;5058396;28;20419;-86
2022/03/19 00:46:14;;;;;;;43.35;21.67;;;5.10;99.90;;;;;;5056649;28;20417;-87
2022/03/19 00:48:40;;;;;;;37.30;21.50;;;5.00;99.90;;;;;;5055348;28;20391;-86
2022/03/19 00:51:06;;;;;;;39.90;21.40;;;5.00;99.90;;;;;;5055393;28;20793;-86
2022/03/19 00:53:31;;;;;;;33.58;20.02;;;5.10;99.90;;;;;;5058355;28;20873;-86
2022/03/19 00:55:57;;;;;;;38.28;20.85;;;4.90;99.90;;;;;;5056861;28;20411;-86
2022/03/19 00:58:23;;;;;;;41.63;21.48;;;4.90;99.90;;;;;;5054310;28;20383;-86
2022/03/19 01:00:49;;;;;;;43.65;23.55;;;4.80;99.90;;;;;;5053878;28;20525;-86
2022/03/19 01:03:15;;;;;;;47.50;22.50;;;4.70;99.90;;;;;;5054733;28;20445;-86
2022/03/19 01:05:42;;;;;;;37.83;21.97;;;4.70;99.90;;;;;;5056093;28;20524;-86
2022/03/19 01:08:08;;;;;;;45.40;23.00;;;4.60;99.90;;;;;;5055282;28;20458;-86
2022/03/19 01:10:35;;;;;;;43.65;22.77;;;4.40;99.90;;;;;;5056116;28;20399;-86
2022/03/19 01:13:04;;;;;;;37.13;21.50;;;4.40;99.90;;;;;;5056705;28;20414;-86
2022/03/19 01:15:30;;;;;;;40.60;22.50;;;4.40;99.90;;;;;;5056091;28;20438;-86
2022/03/19 01:17:56;;;;;;;33.65;21.13;;;4.20;99.90;;;;;;5056584;28;20416;-86
2022/03/19 01:20:23;;;;;;;38.07;22.60;;;4.20;99.90;;;;;;5055245;28;20411;-86
2022/03/19 01:22:49;;;;;;;33.22;21.52;;;4.10;99.90;;;;;;5056512;28;20379;-86
2022/03/19 01:25:16;;;;;;;46.50;23.63;;;4.00;99.90;;;;;;5053980;28;20403;-86
2022/03/19 01:27:44;;;;;;;36.10;22.40;;;4.00;99.90;;;;;;5055333;28;20415;-86
2022/03/19 01:30:11;;;;;;;39.00;22.75;;;3.90;99.90;;;;;;5054938;28;20386;-86
2022/03/19 01:32:38;;;;;;;44.40;24.05;;;3.80;99.90;;;;;;5035347;28;20425;-86
2022/03/19 01:35:04;;;;;;;37.90;22.75;;;3.80;99.90;;;;;;5055331;28;20396;-87
2022/03/19 01:37:30;;;;;;;46.07;25.07;;;3.60;99.90;;;;;;5055273;28;20419;-85
2022/03/19 01:39:56;;;;;;;45.83;23.70;;;3.60;99.90;;;;;;5053488;28;20403;-85
2022/03/19 01:42:26;;;;;;;39.97;22.40;;;3.50;99.90;;;;;;5053782;28;20384;-86
2022/03/19 01:44:53;;;;;;;37.63;21.40;;;3.70;99.90;;;;;;5056731;28;20411;-86
2022/03/19 01:47:20;;;;;;;37.28;19.60;;;3.60;99.90;;;;;;5056977;28;20467;-86
2022/03/19 01:49:46;;;;;;;33.22;18.45;;;3.70;99.90;;;;;;5056488;28;20395;-86
2022/03/19 01:52:12;;;;;;;33.92;18.27;;;3.80;99.90;;;;;;5054487;28;20889;-86
2022/03/19 01:54:41;;;;;;;34.85;17.40;;;3.80;99.90;;;;;;5056766;28;20881;-85
2022/03/19 01:57:09;;;;;;;28.02;15.90;;;3.80;99.90;;;;;;5058472;28;20815;-86
2022/03/19 01:59:36;;;;;;;34.35;15.57;;;3.80;99.90;;;;;;5055178;28;20403;-86
2022/03/19 02:02:07;;;;;;;32.70;15.07;;;3.90;99.90;;;;;;5053957;28;20388;-86
2022/03/19 02:04:37;;;;;;;28.70;15.82;;;3.80;99.90;;;;;;5055670;28;20445;-86
2022/03/19 02:07:03;;;;;;;30.25;15.55;;;3.80;99.90;;;;;;5060066;28;20403;-87
2022/03/19 02:09:29;;;;;;;31.58;16.83;;;3.60;99.90;;;;;;5053774;28;20383;-86
2022/03/19 02:11:55;;;;;;;28.20;15.82;;;3.50;99.90;;;;;;5053565;28;20387;-85
2022/03/19 02:14:21;;;;;;;29.73;15.75;;;3.40;99.90;;;;;;5055270;28;20445;-86
2022/03/19 02:16:47;;;;;;;29.77;16.52;;;3.30;99.90;;;;;;5056333;28;21137;-86
2022/03/19 02:19:13;;;;;;;32.93;16.67;;;3.30;99.90;;;;;;5054356;28;20390;-86
2022/03/19 02:21:40;;;;;;;30.77;16.48;;;3.10;99.90;;;;;;5053919;28;20444;-86
2022/03/19 02:26:50;;;;;;;31.15;15.70;;;3.10;99.90;;;;;;5054820;28;20433;-86
2022/03/19 02:29:17;;;;;;;34.97;16.97;;;3.10;99.90;;;;;;5053134;28;20475;-86
2022/03/19 02:31:44;;;;;;;32.60;16.45;;;3.10;99.90;;;;;;5054219;28;20953;-85
2022/03/19 02:34:10;;;;;;;30.57;16.43;;;2.90;99.90;;;;;;5053437;28;20384;-86
2022/03/19 02:36:40;;;;;;;27.05;15.90;;;2.90;99.90;;;;;;5052739;28;20905;-86
2022/03/19 02:39:28;;;;;;;31.77;17.17;;;2.90;99.90;;;;;;5052782;28;20957;-86
2022/03/19 02:41:56;;;;;;;26.08;15.35;;;2.80;99.90;;;;;;5050587;28;20893;-86
2022/03/19 02:44:22;;;;;;;27.77;17.40;;;2.70;99.90;;;;;;5052050;28;20388;-86
2022/03/19 02:46:54;;;;;;;30.13;15.80;;;2.50;99.90;;;;;;5052493;28;20400;-86
2022/03/19 02:49:20;;;;;;;30.38;17.38;;;2.40;99.90;;;;;;5052434;28;20938;-86
2022/03/19 02:51:48;;;;;;;27.88;17.05;;;2.30;99.90;;;;;;5055505;28;20407;-87
2022/03/19 02:54:17;;;;;;;36.78;18.60;;;2.10;99.90;;;;;;5056340;28;20376;-86
2022/03/19 02:56:44;;;;;;;32.45;17.33;;;2.00;99.90;;;;;;5056701;28;20403;-86
2022/03/19 02:59:13;;;;;;;30.83;18.05;;;1.90;99.90;;;;;;5056460;28;20874;-86
2022/03/19 03:01:40;;;;;;;26.77;15.88;;;1.90;99.90;;;;;;5056060;28;20428;-87
2022/03/19 03:04:06;;;;;;;33.75;17.13;;;1.80;99.90;;;;;;5057348;28;20394;-86
2022/03/19 03:06:37;;;;;;;32.35;18.92;;;1.60;99.90;;;;;;5055635;28;20419;-86
2022/03/19 03:09:04;;;;;;;32.35;17.70;;;1.50;99.90;;;;;;5055411;28;20387;-86
2022/03/19 03:11:30;;;;;;;31.27;15.93;;;1.40;99.90;;;;;;5057810;28;20886;-86
2022/03/19 03:13:56;;;;;;;35.00;17.23;;;1.20;99.90;;;;;;5058424;28;20387;-86
2022/03/19 03:16:22;;;;;;;42.40;22.17;;;1.10;99.90;;;;;;5062527;28;20924;-86
2022/03/19 03:18:48;;;;;;;34.40;17.65;;;1.10;99.90;;;;;;5058343;28;20470;-86
2022/03/19 03:21:14;;;;;;;27.75;17.00;;;1.20;99.90;;;;;;5055964;28;20388;-86
2022/03/19 03:23:39;;;;;;;28.23;17.15;;;1.20;99.90;;;;;;5056758;28;20379;-86
2022/03/19 03:26:05;;;;;;;31.33;17.65;;;1.00;99.90;;;;;;5054357;28;20403;-86
2022/03/19 03:28:31;;;;;;;31.55;16.63;;;0.90;99.90;;;;;;5053839;28;20395;-87
2022/03/19 03:30:57;;;;;;;34.20;20.45;;;0.80;99.90;;;;;;5053197;28;20396;-86
2022/03/19 03:33:23;;;;;;;37.10;19.90;;;0.70;99.90;;;;;;5054083;28;20388;-86
2022/03/19 03:35:49;;;;;;;27.73;17.05;;;0.70;99.90;;;;;;5055365;28;20866;-85
2022/03/19 03:38:14;;;;;;;33.03;18.50;;;0.60;99.90;;;;;;5054913;28;20388;-86
2022/03/19 03:40:41;;;;;;;33.10;19.73;;;0.60;99.90;;;;;;5055117;28;20447;-86
2022/03/19 03:43:08;;;;;;;37.15;20.40;;;0.50;99.90;;;;;;5055365;28;20474;-86
2022/03/19 03:45:34;;;;;;;33.28;20.15;;;0.60;99.90;;;;;;5054158;28;20469;-86
2022/03/19 03:48:00;;;;;;;34.08;19.80;;;0.40;99.90;;;;;;5051321;28;20396;-86
2022/03/19 03:50:26;;;;;;;32.22;19.27;;;0.40;99.90;;;;;;5053999;28;20387;-86
2022/03/19 03:52:52;;;;;;;32.17;18.92;;;0.40;99.90;;;;;;5056012;28;20388;-86
2022/03/19 03:55:18;;;;;;;31.70;19.43;;;0.30;99.90;;;;;;5055651;28;20395;-86
2022/03/19 03:57:44;;;;;;;32.97;18.15;;;0.20;99.90;;;;;;5055391;28;20411;-86
2022/03/19 04:00:10;;;;;;;35.30;20.10;;;0.20;99.90;;;;;;5056447;28;20916;-86
2022/03/19 04:02:36;;;;;;;37.08;22.60;;;0.20;99.90;;;;;;5048384;28;20387;-86
2022/03/19 04:05:03;;;;;;;36.67;21.27;;;0.50;99.90;;;;;;5054050;28;20418;-86
2022/03/19 04:07:30;;;;;;;40.50;23.25;;;0.40;99.90;;;;;;5055686;28;20408;-87
2022/03/19 04:09:56;;;;;;;38.15;24.15;;;0.60;99.90;;;;;;5054402;28;20387;-86
2022/03/19 04:12:22;;;;;;;46.63;24.33;;;0.60;99.90;;;;;;5055311;28;20457;-85
2022/03/19 04:14:49;;;;;;;43.08;24.45;;;0.80;99.90;;;;;;5055219;28;20471;-86
2022/03/19 04:17:15;;;;;;;44.43;24.70;;;0.90;99.90;;;;;;5054090;28;20885;-86
2022/03/19 04:19:41;;;;;;;45.90;25.33;;;1.10;99.90;;;;;;5056834;28;20391;-86
2022/03/19 04:22:06;;;;;;;40.38;24.83;;;1.20;99.90;;;;;;5057098;28;20904;-86
2022/03/19 04:24:32;;;;;;;40.85;23.15;;;1.30;99.90;;;;;;5053675;28;20904;-86
2022/03/19 04:26:58;;;;;;;39.38;23.95;;;1.50;99.90;;;;;;5053903;28;20407;-86
2022/03/19 04:29:24;;;;;;;43.75;24.15;;;1.50;99.90;;;;;;5054870;28;20399;-86
2022/03/19 04:31:49;;;;;;;39.85;24.08;;;1.60;99.90;;;;;;5053010;28;20406;-86
2022/03/19 04:34:15;;;;;;;39.40;23.20;;;1.50;99.90;;;;;;5056772;28;20471;-85
2022/03/19 04:36:41;;;;;;;38.70;22.23;;;1.40;99.90;;;;;;5058165;28;20384;-86
2022/03/19 04:39:07;;;;;;;36.20;21.23;;;1.40;99.90;;;;;;5056041;28;20384;-86
2022/03/19 04:41:35;;;;;;;35.58;22.30;;;1.30;99.90;;;;;;5057381;28;20785;-86
2022/03/19 04:44:01;;;;;;;36.78;21.70;;;1.30;99.90;;;;;;5055477;28;20427;-86
2022/03/19 04:46:27;;;;;;;33.93;20.40;;;1.20;99.90;;;;;;5056392;28;20461;-87
2022/03/19 04:48:53;;;;;;;39.05;21.77;;;1.10;99.90;;;;;;5055804;28;20376;-86
2022/03/19 04:51:20;;;;;;;40.07;20.87;;;1.00;99.90;;;;;;5053089;28;20391;-86
2022/03/19 04:53:50;;;;;;;37.33;20.40;;;1.10;99.90;;;;;;5053306;28;20380;-86
2022/03/19 04:56:24;;;;;;;35.92;21.60;;;1.00;99.90;;;;;;5054666;28;20466;-86
2022/03/19 04:58:55;;;;;;;38.28;20.38;;;1.10;99.90;;;;;;5058047;28;20375;-86
2022/03/19 05:01:24;;;;;;;37.13;20.48;;;1.10;99.90;;;;;;5058928;28;20380;-86
2022/03/19 05:03:49;;;;;;;29.17;19.00;;;1.00;99.90;;;;;;5054452;28;20396;-86
2022/03/19 05:06:15;;;;;;;33.07;19.50;;;0.90;99.90;;;;;;5052796;28;20387;-86
2022/03/19 05:08:41;;;;;;;40.83;20.23;;;0.70;99.90;;;;;;5051935;28;20482;-86
2022/03/19 05:11:12;;;;;;;34.80;20.13;;;0.70;99.90;;;;;;5052994;28;20371;-86
2022/03/19 05:13:38;;;;;;;38.72;20.40;;;0.80;99.90;;;;;;5052763;28;20873;-86
2022/03/19 05:16:04;;;;;;;35.72;19.42;;;0.80;99.90;;;;;;5053616;28;20399;-86
2022/03/19 05:18:30;;;;;;;36.33;20.87;;;0.70;99.90;;;;;;5051273;28;20477;-86
2022/03/19 05:20:58;;;;;;;34.45;19.73;;;0.70;99.90;;;;;;5051985;28;20395;-86
2022/03/19 05:23:24;;;;;;;30.13;18.88;;;0.70;99.90;;;;;;5052094;28;20395;-86
2022/03/19 05:25:50;;;;;;;38.65;19.50;;;0.80;99.90;;;;;;5051011;28;20384;-86
2022/03/19 05:28:16;;;;;;;35.27;19.20;;;1.00;99.90;;;;;;5052532;28;20391;-85
2022/03/19 05:30:42;;;;;;;34.23;19.13;;;1.30;99.90;;;;;;5052370;28;20731;-85
2022/03/19 05:33:08;;;;;;;33.37;18.70;;;1.20;99.90;;;;;;5052450;28;20839;-86
2022/03/19 05:35:34;;;;;;;29.20;17.63;;;1.00;99.90;;;;;;5054310;28;20380;-86
2022/03/19 05:38:00;;;;;;;42.28;21.80;;;1.10;99.90;;;;;;5053300;28;20395;-86
2022/03/19 05:40:28;;;;;;;39.03;23.00;;;1.00;99.90;;;;;;5052776;28;20386;-86
2022/03/19 05:42:54;;;;;;;44.15;23.00;;;1.00;99.90;;;;;;5053425;28;20407;-86
2022/03/19 05:45:21;;;;;;;34.10;20.42;;;1.00;99.90;;;;;;5051295;28;20463;-86
2022/03/19 05:47:47;;;;;;;36.63;19.90;;;1.10;99.90;;;;;;5050462;28;20446;-86
2022/03/19 05:50:14;;;;;;;35.10;18.57;;;1.20;99.90;;;;;;5050923;28;20482;-86
2022/03/19 05:52:40;;;;;;;32.45;19.02;;;1.20;99.90;;;;;;5051489;28;20383;-86
2022/03/19 05:55:08;;;;;;;36.05;19.02;;;1.20;99.90;;;;;;5052466;28;20403;-86
2022/03/19 05:57:34;;;;;;;35.38;18.75;;;1.20;99.90;;;;;;5056138;28;20419;-87
2022/03/19 06:00:00;;;;;;;30.30;17.48;;;1.30;99.90;;;;;;5064032;28;20510;-86
2022/03/19 06:02:26;;;;;;;30.80;17.20;;;1.30;99.90;;;;;;5062399;28;20395;-87
2022/03/19 06:04:52;;;;;;;28.60;15.40;;;1.40;99.90;;;;;;5060949;28;20383;-86
2022/03/19 06:07:18;;;;;;;27.63;14.70;;;1.70;99.90;;;;;;5063853;28;20400;-86
2022/03/19 06:09:44;;;;;;;30.10;16.08;;;1.80;99.90;;;;;;5065078;28;21042;-86
2022/03/19 06:12:10;;;;;;;27.50;14.35;;;1.80;99.90;;;;;;5064572;28;20380;-86
2022/03/19 06:14:36;;;;;;;31.70;14.50;;;2.00;99.90;;;;;;5066266;28;20375;-86
2022/03/19 06:17:01;;;;;;;27.35;13.13;;;2.20;99.90;;;;;;5064015;28;20415;-86
2022/03/19 06:19:27;;;;;;;24.88;12.63;;;2.30;99.90;;;;;;5063613;28;20392;-86
2022/03/19 06:21:53;;;;;;;22.65;11.38;;;2.60;99.90;;;;;;5058520;28;20913;-86
2022/03/19 06:24:20;;;;;;;20.70;10.25;;;2.80;99.90;;;;;;5067034;28;20372;-87
2022/03/19 06:26:46;;;;;;;16.73;9.63;;;3.00;99.90;;;;;;5055102;28;20453;-87
2022/03/19 06:29:12;;;;;;;18.93;9.90;;;3.00;99.90;;;;;;5056012;28;20384;-86
2022/03/19 06:31:37;;;;;;;19.97;9.13;;;3.20;99.90;;;;;;5054351;28;20418;-85
2022/03/19 06:34:03;;;;;;;20.47;8.90;;;3.30;99.90;;;;;;5054908;28;20380;-86
2022/03/19 06:39:14;;;;;;;19.42;8.18;;;3.60;99.90;;;;;;5058630;28;20537;-86
2022/03/19 06:41:39;;;;;;;15.45;8.13;;;3.70;99.90;;;;;;5057518;28;21023;-86
2022/03/19 06:44:05;;;;;;;18.17;8.23;;;3.90;99.90;;;;;;5051853;28;20889;-86
2022/03/19 06:46:34;;;;;;;16.25;7.47;;;3.90;99.90;;;;;;5057612;28;20379;-87
2022/03/19 06:48:59;;;;;;;16.88;7.78;;;4.10;99.90;;;;;;5055045;28;20361;-86
2022/03/19 06:51:25;;;;;;;15.10;7.80;;;4.10;99.90;;;;;;5053493;28;20380;-86
2022/03/19 06:53:51;;;;;;;19.85;7.53;;;4.20;99.90;;;;;;5053146;28;20451;-85
2022/03/19 06:56:17;;;;;;;14.70;7.37;;;4.30;99.90;;;;;;5051567;28;20383;-88
2022/03/19 06:58:43;;;;;;;14.10;7.38;;;4.40;99.90;;;;;;5050276;28;20897;-86
2022/03/19 07:01:17;;;;;;;15.38;7.63;;;4.50;99.90;;;;;;5052488;28;20445;-86
2022/03/19 07:03:45;;;;;;;20.73;7.47;;;4.60;99.90;;;;;;5049797;28;20396;-86
2022/03/19 07:06:11;;;;;;;13.82;6.80;;;4.60;99.90;;;;;;5052483;28;20391;-86
2022/03/19 07:08:38;;;;;;;12.93;6.18;;;4.90;99.90;;;;;;5049924;28;20418;-86
2022/03/19 07:11:04;;;;;;;15.13;6.40;;;4.90;99.90;;;;;;5051694;28;20388;-85
2022/03/19 07:13:30;;;;;;;13.05;6.18;;;5.10;99.90;;;;;;5050319;28;20886;-86
2022/03/19 07:15:55;;;;;;;18.30;6.45;;;5.10;99.90;;;;;;5052805;28;20521;-87
2022/03/19 07:18:21;;;;;;;13.82;5.82;;;5.20;99.90;;;;;;5052628;28;20391;-85
2022/03/19 07:20:47;;;;;;;12.63;6.28;;;5.40;99.90;;;;;;5052122;28;20438;-86
2022/03/19 07:23:13;;;;;;;14.93;5.97;;;5.50;99.90;;;;;;5051209;28;20986;-87
2022/03/19 07:25:39;;;;;;;15.80;6.17;;;5.60;99.90;;;;;;5051076;28;20418;-86
2022/03/19 07:28:19;;;;;;;13.90;5.75;;;5.80;99.90;;;;;;5053469;28;20538;-88
2022/03/19 07:30:46;;;;;;;18.35;6.82;;;6.00;99.90;;;;;;5049911;28;20408;-86
2022/03/19 07:33:12;;;;;;;15.88;6.13;;;6.00;99.90;;;;;;5036033;28;20476;-86
2022/03/19 07:35:39;;;;;;;15.43;5.45;;;6.10;99.90;;;;;;5059448;28;20814;-86
2022/03/19 07:38:06;;;;;;;13.57;5.22;;;6.30;99.90;;;;;;5063918;28;20414;-87
2022/03/19 07:43:19;;;;;;;32.27;7.00;;;6.30;99.90;;;;;;5067692;28;20399;-84
2022/03/19 07:45:45;;;;;;;11.17;4.90;;;6.50;99.90;;;;;;5063234;28;20492;-84
2022/03/19 07:48:11;;;;;;;12.30;4.70;;;6.50;99.90;;;;;;5046644;28;20433;-85
2022/03/19 07:50:38;;;;;;;13.70;4.70;;;6.70;99.90;;;;;;5059457;28;20399;-87
2022/03/19 07:53:04;;;;;;;12.68;4.53;;;6.80;99.90;;;;;;5061538;28;20886;-84
2022/03/19 07:55:31;;;;;;;14.23;4.38;;;6.70;99.90;;;;;;5063528;28;20384;-86
2022/03/19 07:57:56;;;;;;;13.25;5.00;;;6.80;99.90;;;;;;5061139;28;20474;-84
2022/03/19 08:00:22;;;;;;;13.07;4.57;;;6.70;99.90;;;;;;5057427;28;20434;-86
2022/03/19 08:02:48;;;;;;;12.90;4.50;;;6.90;99.90;;;;;;5065051;28;20413;-85
2022/03/19 08:05:13;;;;;;;9.07;4.40;;;7.20;99.90;;;;;;5065723;28;20418;-86
2022/03/19 08:07:40;;;;;;;10.90;4.38;;;7.30;99.90;;;;;;5063314;28;20809;-85
2022/03/19 08:10:07;;;;;;;10.98;4.30;;;7.40;99.90;;;;;;5042711;28;20380;-86
2022/03/19 08:12:38;;;;;;;12.80;4.35;;;7.50;99.90;;;;;;5063462;28;20388;-86
2022/03/19 08:15:06;;;;;;;14.63;4.72;;;7.50;99.90;;;;;;5062534;28;20387;-87
2022/03/19 08:17:33;;;;;;;9.38;4.10;;;7.40;99.90;;;;;;5065884;28;20391;-85
2022/03/19 08:20:00;;;;;;;12.48;4.13;;;7.40;99.90;;;;;;5059314;28;20420;-86
2022/03/19 08:22:26;;;;;;;11.80;3.97;;;7.70;99.90;;;;;;5057729;28;20978;-87
2022/03/19 08:24:52;;;;;;;11.30;4.45;;;7.90;99.90;;;;;;5056487;28;20376;-88
2022/03/19 08:27:18;;;;;;;9.87;4.27;;;7.80;99.90;;;;;;5054758;28;20406;-85
2022/03/19 08:29:44;;;;;;;11.70;4.20;;;7.70;99.90;;;;;;5057981;28;20404;-84
2022/03/19 08:32:10;;;;;;;11.93;4.20;;;7.70;99.90;;;;;;5057649;28;20463;-85
2022/03/19 08:34:37;;;;;;;10.48;4.10;;;7.80;99.90;;;;;;5058808;28;20390;-86
2022/03/19 08:37:03;;;;;;;11.25;4.20;;;8.20;99.90;;;;;;5061645;28;20384;-85
2022/03/19 08:42:13;;;;;;;8.50;3.85;;;8.50;99.90;;;;;;5057321;28;20387;-87
2022/03/19 08:44:38;;;;;;;9.40;3.60;;;8.60;99.90;;;;;;5055042;28;20399;-88
2022/03/19 08:47:04;;;;;;;9.95;3.90;;;8.70;99.90;;;;;;5053835;28;20482;-85
2022/03/19 08:49:33;;;;;;;12.13;4.15;;;8.70;99.90;;;;;;5052892;28;20413;-87
2022/03/19 08:51:59;;;;;;;10.97;3.40;;;8.90;99.90;;;;;;5052938;28;20387;-83
2022/03/19 08:54:25;;;;;;;9.90;3.97;;;9.00;99.90;;;;;;5049806;28;20402;-88
2022/03/19 08:56:51;;;;;;;9.63;3.90;;;8.80;99.90;;;;;;5048840;28;20388;-88
2022/03/19 08:59:20;;;;;;;13.18;3.65;;;8.80;99.90;;;;;;5046814;28;20890;-85
2022/03/19 09:01:48;;;;;;;98.47;11.55;;;8.90;99.90;;;;;;5054765;28;20467;-84
2022/03/19 09:04:14;;;;;;;10.45;3.50;;;9.30;99.90;;;;;;5060973;28;20395;-85
2022/03/19 09:06:41;;;;;;;32.90;5.88;;;9.20;99.90;;;;;;5050359;28;20434;-85
2022/03/19 09:09:07;;;;;;;9.50;3.53;;;9.20;99.90;;;;;;5054567;28;20394;-84
2022/03/19 09:11:35;;;;;;;8.65;3.92;;;9.40;99.90;;;;;;5052247;28;20391;-87
2022/03/19 09:14:03;;;;;;;9.68;3.65;;;9.40;99.90;;;;;;5051374;28;20389;-85
2022/03/19 09:16:32;;;;;;;8.68;3.28;;;9.40;99.90;;;;;;5051432;28;20415;-86
2022/03/19 09:18:58;;;;;;;10.80;3.05;;;9.50;99.90;;;;;;5047667;28;20774;-88
2022/03/19 09:21:25;;;;;;;9.60;3.50;;;9.50;99.90;;;;;;5059365;28;20384;-85
2022/03/19 09:23:51;;;;;;;7.93;2.85;;;9.70;99.90;;;;;;5060848;28;20402;-87
2022/03/19 09:26:18;;;;;;;14.93;3.72;;;9.80;99.90;;;;;;5061950;28;20458;-87
2022/03/19 09:28:47;;;;;;;9.30;3.10;;;9.80;99.90;;;;;;5060965;28;20446;-87
2022/03/19 09:31:15;;;;;;;8.80;3.15;;;9.90;99.90;;;;;;5065098;28;20447;-86
2022/03/19 09:33:45;;;;;;;10.48;3.60;;;9.80;99.90;;;;;;5060229;28;20379;-86
2022/03/19 09:36:12;;;;;;;7.45;3.42;;;9.90;99.90;;;;;;5044366;28;20388;-86
2022/03/19 09:38:39;;;;;;;12.13;3.07;;;9.70;99.90;;;;;;5059848;28;20388;-86
2022/03/19 09:41:05;;;;;;;8.27;3.00;;;9.80;99.90;;;;;;5057485;28;20400;-85
2022/03/19 09:43:31;;;;;;;7.32;2.80;;;10.00;99.90;;;;;;5057560;28;20412;-86
2022/03/19 09:45:57;;;;;;;9.65;3.20;;;10.10;99.90;;;;;;5051468;28;20391;-85
2022/03/19 09:48:23;;;;;;;8.82;2.88;;;10.20;99.90;;;;;;5053364;28;20447;-87
2022/03/19 09:50:54;;;;;;;8.82;3.08;;;10.40;99.90;;;;;;5048564;28;20398;-86
2022/03/19 09:53:24;;;;;;;10.25;3.38;;;10.60;99.90;;;;;;5049514;28;20384;-87
2022/03/19 09:55:53;;;;;;;10.33;3.77;;;10.40;99.90;;;;;;5052652;28;20392;-85
2022/03/19 09:58:20;;;;;;;7.45;2.83;;;10.40;99.90;;;;;;5051068;28;20758;-87
2022/03/19 10:00:45;;;;;;;10.35;3.00;;;10.50;99.90;;;;;;5054723;28;20445;-85
2022/03/19 10:03:12;;;;;;;12.05;3.65;;;10.40;99.90;;;;;;5053912;28;20383;-84
2022/03/19 10:08:41;;;;;;;10.70;3.55;;;10.70;99.90;;;;;;5051320;28;20920;-86
2022/03/19 10:11:09;;;;;;;9.32;3.83;;;10.90;99.90;;;;;;5051179;28;20437;-87
2022/03/19 10:13:42;;;;;;;8.52;3.45;;;10.70;99.90;;;;;;5050631;28;20399;-87
2022/03/19 10:16:09;;;;;;;8.52;3.28;;;11.00;99.90;;;;;;5048922;28;20446;-86
2022/03/19 10:18:35;;;;;;;8.68;2.95;;;11.10;99.90;;;;;;5046348;28;20448;-86
2022/03/19 10:21:15;;;;;;;7.47;2.90;;;11.00;99.90;;;;;;5047113;28;20396;-84
2022/03/19 10:23:42;;;;;;;6.75;2.50;;;10.80;99.90;;;;;;5044562;28;20394;-85
2022/03/19 10:26:21;;;;;;;7.65;3.08;;;10.70;99.90;;;;;;5043946;28;20385;-86
2022/03/19 10:28:59;;;;;;;11.05;2.75;;;10.80;99.90;;;;;;5039038;28;20383;-86
2022/03/19 10:31:33;;;;;;;8.15;2.95;;;10.80;99.90;;;;;;5041760;28;20412;-86
2022/03/19 10:33:59;;;;;;;5.88;2.50;;;10.80;99.90;;;;;;5044956;28;20382;-87
2022/03/19 10:36:34;;;;;;;10.13;3.05;;;10.90;99.90;;;;;;5047711;28;20385;-87
2022/03/19 10:39:06;;;;;;;17.30;4.00;;;10.90;99.90;;;;;;5049055;28;20483;-88
2022/03/19 10:41:37;;;;;;;12.27;4.07;;;;;;;;;;5044497;28;20388;-89
2022/03/19 10:44:27;;;;;;;10.82;4.25;;;10.80;99.90;;;;;;5047807;28;20392;-89
2022/03/19 10:46:58;;;;;;;8.70;3.20;;;10.90;99.90;;;;;;5043416;28;20413;-87
2022/03/19 10:49:28;;;;;;;6.93;2.85;;;10.90;99.90;;;;;;5044383;28;20400;-89
2022/03/19 10:51:58;;;;;;;12.50;3.35;;;10.90;99.90;;;;;;5053497;28;20449;-88
2022/03/19 10:54:26;;;;;;;32.63;5.20;;;10.70;99.90;;;;;;5060238;28;20419;-87
2022/03/19 10:56:53;;;;;;;7.63;3.03;;;10.70;99.90;;;;;;5061344;28;20502;-88
2022/03/19 10:59:22;;;;;;;34.35;6.47;;;10.70;99.90;;;;;;5057405;28;20401;-86
2022/03/19 11:01:49;;;;;;;9.10;3.88;;;10.70;99.90;;;;;;5025835;28;20425;-87
2022/03/19 11:04:15;;;;;;;7.82;3.38;;;10.70;99.90;;;;;;5049536;28;20391;-88
2022/03/19 11:06:51;;;;;;;10.23;3.92;;;10.70;99.90;;;;;;5050894;28;20466;-87
2022/03/19 11:09:20;;;;;;;10.00;3.00;;;10.70;99.90;;;;;;5055727;28;20404;-85
2022/03/19 11:12:07;;;;;;;10.70;3.38;;;10.60;99.60;;;;;;5036647;28;21200;-88
2022/03/19 11:14:40;;;;;;;38.33;6.10;;;10.50;98.50;;;;;;5077033;28;20457;-89
2022/03/19 11:17:24;;;;;;;8.65;2.97;;;10.50;98.30;;;;;;5045927;28;20495;-86
2022/03/19 11:20:11;;;;;;;10.88;3.83;;;10.50;98.90;;;;;;5059567;28;20389;-88
2022/03/19 11:23:14;;;;;;;13.00;4.22;;;11.10;98.30;;;;;;5064741;27;20466;-85
2022/03/19 11:25:51;;;;;;;8.40;3.00;;;11.30;97.90;;;;;;5053013;28;20390;-87
2022/03/19 11:28:18;;;;;;;93.40;10.18;;;11.60;97.50;;;;;;5042675;28;20440;-87
2022/03/19 11:31:04;;;;;;;5.50;2.92;;;11.80;97.30;;;;;;5059211;28;20398;-85
2022/03/19 11:33:32;;;;;;;7.95;2.50;;;11.70;97.10;;;;;;5057986;28;20403;-85
2022/03/19 11:36:01;;;;;;;7.07;2.78;;;11.80;96.70;;;;;;5060998;28;20402;-88
2022/03/19 11:38:29;;;;;;;7.80;3.40;;;11.70;96.00;;;;;;5058398;28;20388;-88
2022/03/19 11:40:56;;;;;;;7.22;2.80;;;11.60;95.90;;;;;;5058008;28;20423;-85
2022/03/19 11:43:26;;;;;;;9.70;2.90;;;11.40;95.30;;;;;;5077273;28;20423;-86
2022/03/19 11:46:13;;;;;;;11.52;3.58;;;11.10;95.40;;;;;;5059609;28;20397;-87
2022/03/19 11:48:52;;;;;;;9.87;3.20;;;11.10;95.00;;;;;;5057744;28;20495;-87
2022/03/19 11:51:24;;;;;;;7.70;3.03;;;11.20;95.00;;;;;;5058828;28;20412;-84
2022/03/19 11:53:53;;;;;;;7.07;2.80;;;11.40;94.20;;;;;;5057523;28;20438;-84
2022/03/19 11:56:20;;;;;;;7.30;3.30;;;11.50;94.00;;;;;;5060668;28;20384;-88
2022/03/19 11:58:46;;;;;;;7.65;3.17;;;11.60;94.20;;;;;;5054423;28;20940;-88
2022/03/19 12:01:13;;;;;;;6.13;2.47;;;11.50;93.80;;;;;;5058980;28;20399;-89
2022/03/19 12:04:18;;;;;;;7.27;3.67;;;11.40;93.80;;;;;;5053189;28;20390;-86
2022/03/19 12:06:53;;;;;;;7.05;2.72;;;11.60;94.10;;;;;;5024363;28;20428;-86
2022/03/19 12:09:33;;;;;;;5.53;2.60;;;11.70;93.80;;;;;;5053717;28;20384;-87
2022/03/19 12:12:27;;;;;;;56.78;7.13;;;11.70;92.40;;;;;;5066411;28;20414;-86
2022/03/19 12:14:56;;;;;;;5.32;2.80;;;11.70;93.30;;;;;;5068083;28;20430;-85
2022/03/19 12:17:28;;;;;;;5.50;3.03;;;11.70;92.80;;;;;;5067990;28;20406;-84
2022/03/19 12:20:07;;;;;;;5.57;2.88;;;11.60;93.20;;;;;;5068761;28;20435;-86
2022/03/19 12:22:38;;;;;;;5.78;2.75;;;11.80;93.80;;;;;;5063532;28;20395;-86
2022/03/19 12:25:25;;;;;;;7.85;2.75;;;12.00;92.70;;;;;;5064431;28;20448;-85
2022/03/19 12:27:59;;;;;;;7.30;3.20;;;12.30;92.30;;;;;;5065640;28;20399;-86
2022/03/19 12:30:26;;;;;;;18.45;3.42;;;12.30;92.40;;;;;;5059371;28;20372;-86
2022/03/19 12:32:58;;;;;;;10.02;3.00;;;12.20;91.40;;;;;;5062292;28;20404;-89
2022/03/19 12:38:52;;;;;;;7.18;3.25;;;12.10;92.60;;;;;;5065759;28;20392;-86
2022/03/19 12:41:28;;;;;;;8.18;3.13;;;12.10;93.00;;;;;;5062059;28;20389;-90
2022/03/19 12:44:06;;;;;;;5.82;3.10;;;12.20;93.10;;;;;;5056435;28;20387;-87
2022/03/19 12:46:39;;;;;;;7.57;3.50;;;12.10;93.10;;;;;;5051030;28;20800;-85
2022/03/19 12:49:17;;;;;;;10.02;3.75;;;12.00;93.50;;;;;;5055173;28;20414;-87
2022/03/19 12:51:48;;;;;;;25.43;4.60;;;11.90;94.20;;;;;;5055540;28;20380;-87
2022/03/19 12:54:28;;;;;;;10.03;3.90;;;11.60;94.50;;;;;;5049444;28;20762;-85
2022/03/19 12:57:07;;;;;;;9.83;4.10;;;11.40;95.10;;;;;;5053825;28;20404;-85
2022/03/19 12:59:33;;;;;;;7.05;3.67;;;11.30;95.80;;;;;;5046729;28;20796;-86
2022/03/19 13:01:58;;;;;;;8.18;3.50;;;11.30;95.90;;;;;;5046925;28;20899;-86
2022/03/19 13:04:31;;;;;;;7.10;3.80;;;11.40;96.00;;;;;;5050896;28;20385;-86